createdAt,value
2022-12-18T00:05:47.552Z,-69
2022-12-18T00:15:47.646Z,-69
2022-12-18T00:20:47.568Z,-68
2022-12-18T00:30:47.564Z,-69
2022-12-18T00:35:47.572Z,-69
2022-12-18T00:40:47.551Z,-69
2022-12-18T00:45:47.652Z,-69
2022-12-18T00:50:47.567Z,-70
2022-12-18T01:00:47.736Z,-69
2022-12-18T01:10:47.562Z,-69
2022-12-18T01:15:47.580Z,-69
2022-12-18T01:25:47.596Z,-69
2022-12-18T01:35:47.578Z,-69
2022-12-18T01:45:47.620Z,-69
2022-12-18T01:50:47.582Z,-69
2022-12-18T02:00:47.657Z,-70
2022-12-18T02:05:47.588Z,-70
2022-12-18T02:15:47.708Z,-69
2022-12-18T02:20:47.587Z,-70
2022-12-18T02:30:47.654Z,-70
2022-12-18T02:40:47.709Z,-69
2022-12-18T02:50:47.592Z,-70
2022-12-18T03:00:47.714Z,-70
2022-12-18T03:10:47.594Z,-69
2022-12-18T03:15:47.608Z,-70
2022-12-18T03:25:47.700Z,-69
2022-12-18T03:30:47.653Z,-70
2022-12-18T03:40:47.591Z,-70
2022-12-18T03:50:47.747Z,-70
2022-12-18T04:00:47.793Z,-69
2022-12-18T04:10:47.719Z,-71
2022-12-18T04:15:47.676Z,-71
2022-12-18T04:20:47.616Z,-71
2022-12-18T04:30:47.807Z,-70
2022-12-18T04:40:47.604Z,-68
2022-12-18T04:45:47.608Z,-68
2022-12-18T04:50:47.731Z,-68
2022-12-18T05:00:47.620Z,-68
2022-12-18T05:05:47.622Z,-69
2022-12-18T05:15:47.779Z,-69
2022-12-18T05:20:47.612Z,-69
2022-12-18T05:30:47.606Z,-70
2022-12-18T05:35:47.739Z,-70
2022-12-18T05:45:47.609Z,-70
2022-12-18T05:50:47.637Z,-71
2022-12-18T06:00:47.751Z,-71
2022-12-18T06:05:47.634Z,-69
2022-12-18T06:15:47.657Z,-69
2022-12-18T06:20:47.757Z,-69
2022-12-18T06:25:47.637Z,-68
2022-12-18T06:35:47.628Z,-61
2022-12-18T06:40:47.756Z,-62
2022-12-18T06:45:47.706Z,-61
2022-12-18T06:55:47.628Z,-61
2022-12-18T07:00:47.874Z,-61
2022-12-18T07:05:47.656Z,-61
2022-12-18T07:15:47.651Z,-61
2022-12-18T07:25:47.776Z,-62
2022-12-18T07:35:47.654Z,-62
2022-12-18T07:45:47.843Z,-62
2022-12-18T07:50:47.658Z,-61
2022-12-18T07:56:24.948Z,-61
2022-12-18T08:05:47.788Z,-62
2022-12-18T08:15:47.670Z,-71
2022-12-18T08:25:47.790Z,-71
2022-12-18T08:35:47.675Z,-71
2022-12-18T08:40:47.680Z,-71
2022-12-18T08:50:47.776Z,-70
2022-12-18T08:55:50.385Z,-70
2022-12-18T09:05:47.657Z,-71
2022-12-18T09:10:47.791Z,-71
2022-12-18T09:15:47.678Z,-70
2022-12-18T09:25:47.664Z,-70
2022-12-18T09:30:47.899Z,-70
2022-12-18T09:40:47.682Z,-70
2022-12-18T09:50:47.788Z,-71
2022-12-18T09:55:47.688Z,-70
2022-12-18T10:05:47.672Z,-70
2022-12-18T10:10:47.822Z,-70
2022-12-18T10:15:47.754Z,-71
2022-12-18T10:25:47.686Z,-70
2022-12-18T10:35:47.820Z,-70
2022-12-18T10:45:47.679Z,-70
2022-12-18T10:51:10.290Z,-70
2022-12-18T11:00:47.830Z,-70
2022-12-18T11:10:47.697Z,-70
2022-12-18T11:20:47.824Z,-71
2022-12-18T11:25:47.716Z,-70
2022-12-18T11:35:47.753Z,-70
2022-12-18T11:40:47.843Z,-69
2022-12-18T11:50:47.717Z,-70
2022-12-18T12:00:47.849Z,-69
2022-12-18T12:10:47.719Z,-70
2022-12-18T12:20:47.853Z,-70
2022-12-18T12:30:47.730Z,-70
2022-12-18T12:40:56.691Z,-70
2022-12-18T12:50:47.729Z,-70
2022-12-18T12:55:47.760Z,-71
2022-12-18T13:05:47.871Z,-70
2022-12-18T13:15:47.730Z,-70
2022-12-18T13:20:53.756Z,-70
2022-12-18T13:30:47.851Z,-69
2022-12-18T13:35:47.838Z,-70
2022-12-18T13:40:47.749Z,-70
2022-12-18T13:50:47.864Z,-71
2022-12-18T14:00:47.764Z,-70
2022-12-18T14:05:47.739Z,-69
2022-12-18T14:10:49.718Z,-69
2022-12-18T14:20:52.325Z,-69
2022-12-18T14:25:47.997Z,-69
2022-12-18T14:35:47.881Z,-69
2022-12-18T14:40:47.764Z,-69
2022-12-18T14:50:47.767Z,-69
2022-12-18T15:00:47.887Z,-69
2022-12-18T15:05:47.768Z,-70
2022-12-18T15:10:47.770Z,-69
2022-12-18T15:15:47.892Z,-70
2022-12-18T15:20:47.892Z,-69
2022-12-18T15:30:47.780Z,-69
2022-12-18T15:35:47.765Z,-70
2022-12-18T15:40:47.894Z,-70
2022-12-18T15:50:47.775Z,-69
2022-12-18T15:55:47.772Z,-69
2022-12-18T16:00:47.892Z,-69
2022-12-18T16:05:47.776Z,-70
2022-12-18T16:15:47.868Z,-70
2022-12-18T16:20:47.898Z,-70
2022-12-18T16:30:47.816Z,-69
2022-12-18T16:35:47.785Z,-70
2022-12-18T16:45:47.911Z,-70
2022-12-18T16:55:47.785Z,-70
2022-12-18T17:00:47.787Z,-71
2022-12-18T17:10:47.903Z,-71
2022-12-18T17:15:47.802Z,-70
2022-12-18T17:25:47.801Z,-71
2022-12-18T17:35:47.927Z,-67
2022-12-18T17:45:47.793Z,-70
2022-12-18T17:50:47.808Z,-71
2022-12-18T18:00:47.907Z,-71
2022-12-18T18:05:47.804Z,-71
2022-12-18T18:15:47.849Z,-71
2022-12-18T18:20:47.924Z,-71
2022-12-18T18:30:47.807Z,-71
2022-12-18T18:40:47.941Z,-70
2022-12-18T18:50:47.807Z,-72
2022-12-18T18:56:04.028Z,-72
2022-12-18T19:00:47.994Z,-71
2022-12-18T19:10:47.837Z,-70
2022-12-18T19:20:47.942Z,-71
2022-12-18T19:30:47.827Z,-72
2022-12-18T19:35:47.841Z,-72
2022-12-18T19:40:47.945Z,-71
2022-12-18T19:50:47.834Z,-71
2022-12-18T20:00:48.004Z,-71
2022-12-18T20:05:47.834Z,-72
2022-12-18T20:15:47.818Z,-71
2022-12-18T20:20:48.309Z,-70
2022-12-18T20:30:47.828Z,-71
2022-12-18T20:35:47.841Z,-71
2022-12-18T20:45:48.146Z,-71
2022-12-18T20:55:47.833Z,-71
2022-12-18T21:00:47.900Z,-72
2022-12-18T21:05:47.972Z,-71
2022-12-18T21:15:47.851Z,-71
2022-12-18T21:25:50.056Z,-73
2022-12-18T21:35:47.855Z,-72
2022-12-18T21:40:47.857Z,-73
2022-12-18T21:45:48.052Z,-73
2022-12-18T21:55:47.868Z,-75
2022-12-18T22:05:53.334Z,-73
2022-12-18T22:10:47.869Z,-74
2022-12-18T22:15:47.913Z,-73
2022-12-18T22:25:47.980Z,-73
2022-12-18T22:30:47.929Z,-72
2022-12-18T22:40:47.876Z,-74
2022-12-18T22:45:47.998Z,-74
2022-12-18T22:50:47.879Z,-73
2022-12-18T23:00:47.880Z,-73
2022-12-18T23:10:53.774Z,-73
2022-12-18T23:20:47.992Z,-72
2022-12-18T23:25:47.876Z,-72
2022-12-18T23:35:47.875Z,-72
2022-12-18T23:40:48.008Z,-72
2022-12-18T23:50:47.885Z,-72
